Time;durP1;ratioP1;P1;durP2;ratioP2;P2;SDS_P1;SDS_P2;PMS_P1;PMS_P2;Temp;Humidity;BMP_temperature;BMP_pressure;BME280_temperature;BME280_humidity;BME280_pressure;Samples;Min_cycle;Max_cycle;Signal;HPM_P1;HPM_P2
2021/12/15 00:00:47;;;;;;;329.50;179.90;;;;;;;2.40;86.32;98967.52;106255;1323;22612;-64
2021/12/15 00:03:17;;;;;;;307.90;173.10;;;;;;;2.40;86.34;98967.52;106284;1323;22596;-64
2021/12/15 00:05:47;;;;;;;307.00;169.50;;;;;;;2.43;86.27;98967.56;106190;1323;22546;-64
2021/12/15 00:08:18;;;;;;;351.30;180.80;;;;;;;2.47;86.22;98966.98;106250;1323;22436;-63
2021/12/15 00:10:49;;;;;;;362.80;183.10;;;;;;;2.47;86.34;98968.21;106283;1323;22299;-64
2021/12/15 00:13:21;;;;;;;380.20;185.60;;;;;;;2.44;86.27;98969.80;106214;1324;22497;-63
2021/12/15 00:15:52;;;;;;;334.10;165.70;;;;;;;2.41;86.30;98967.59;106189;1324;23144;-63
2021/12/15 00:18:23;;;;;;;287.50;161.60;;;;;;;2.37;86.29;98970.02;106181;1324;22482;-63
2021/12/15 00:20:52;;;;;;;303.10;166.60;;;;;;;2.36;86.27;98972.91;106278;1323;23211;-63
2021/12/15 00:23:21;;;;;;;334.60;159.30;;;;;;;2.34;86.34;98971.41;106123;1323;138627;-64
2021/12/15 00:25:52;;;;;;;347.60;164.40;;;;;;;2.28;86.36;98968.11;106233;1323;22488;-64
2021/12/15 00:28:20;;;;;;;366.60;171.00;;;;;;;2.17;86.35;98959.52;106245;1323;23271;-63
2021/12/15 00:30:48;;;;;;;314.90;161.60;;;;;;;2.14;86.54;98962.46;106261;1323;22646;-63
2021/12/15 00:33:16;;;;;;;332.60;159.10;;;;;;;2.13;86.81;98967.47;106261;1323;22485;-63
2021/12/15 00:35:44;;;;;;;272.60;157.00;;;;;;;2.14;86.91;98964.59;106040;1326;22434;-63
2021/12/15 00:38:13;;;;;;;303.00;163.30;;;;;;;2.18;86.74;98966.36;106273;1323;22277;-63
2021/12/15 00:40:41;;;;;;;351.80;165.60;;;;;;;2.20;87.02;98969.89;106258;1323;22480;-63
2021/12/15 00:43:09;;;;;;;349.10;170.40;;;;;;;2.23;86.88;98973.02;106213;1324;22393;-64
2021/12/15 00:45:38;;;;;;;322.80;154.80;;;;;;;2.23;86.94;98969.87;106232;1323;22501;-65
2021/12/15 00:48:06;;;;;;;267.60;151.50;;;;;;;2.25;87.01;98974.23;106277;1323;22527;-63
2021/12/15 00:50:35;;;;;;;271.90;145.90;;;;;;;2.31;87.12;98978.36;106267;1322;22419;-65
2021/12/15 00:53:04;;;;;;;280.30;155.90;;;;;;;2.34;86.88;98984.30;106218;1324;22512;-65
2021/12/15 00:55:35;;;;;;;291.50;159.20;;;;;;;2.36;86.98;98978.36;106282;1323;23080;-64
2021/12/15 00:58:06;;;;;;;340.70;168.40;;;;;;;2.36;87.08;98975.33;106246;1324;22445;-66
2021/12/15 01:00:39;;;;;;;286.20;155.80;;;;;;;2.37;87.15;98976.46;106285;1323;22484;-66
2021/12/15 01:03:08;;;;;;;282.70;150.50;;;;;;;2.43;87.40;98977.95;106270;1324;22534;-66
2021/12/15 01:05:46;;;;;;;292.70;152.20;;;;;;;2.48;87.00;98975.12;106302;1323;22293;-65
2021/12/15 01:08:23;;;;;;;287.70;153.60;;;;;;;2.54;87.20;98974.37;106263;1316;22553;-66
2021/12/15 01:21:55;;;;;;;261.50;149.80;;;;;;;2.81;87.02;98973.20;106251;1323;22592;-66
2021/12/15 01:24:24;;;;;;;305.30;154.20;;;;;;;2.84;87.35;98973.28;106270;1323;22431;-66
2021/12/15 01:26:52;;;;;;;332.80;158.30;;;;;;;2.85;87.05;98972.20;106297;1322;22305;-67
2021/12/15 01:29:21;;;;;;;269.10;147.80;;;;;;;2.84;87.21;98965.83;106289;1323;23299;-66
2021/12/15 01:31:49;;;;;;;231.90;138.70;;;;;;;2.85;87.03;98970.56;106263;1323;22498;-65
2021/12/15 01:34:17;;;;;;;237.20;137.70;;;;;;;2.87;86.95;98976.64;106260;1323;23254;-66
2021/12/15 01:36:46;;;;;;;237.20;137.90;;;;;;;2.88;86.83;98979.45;106223;1323;22530;-65
2021/12/15 01:39:14;;;;;;;321.30;148.40;;;;;;;2.88;86.87;98975.29;106280;1323;22495;-65
2021/12/15 01:41:43;;;;;;;345.10;153.80;;;;;;;2.87;86.85;98976.15;106270;1323;22311;-66
2021/12/15 01:49:39;;;;;;;270.60;143.90;;;;;;;2.78;87.17;98973.23;105961;1322;407019;-67
2021/12/15 01:52:16;;;;;;;280.60;149.20;;;;;;;2.80;87.23;98977.34;106277;1323;22394;-65
2021/12/15 01:54:48;;;;;;;303.90;150.00;;;;;;;2.81;87.18;98981.26;106293;1323;23394;-65
2021/12/15 01:57:18;;;;;;;320.30;153.00;;;;;;;2.79;87.27;98980.46;106210;1324;22578;-65
2021/12/15 01:59:48;;;;;;;313.50;158.30;;;;;;;2.77;87.17;98978.69;106227;1324;22509;-66
2021/12/15 02:02:18;;;;;;;265.90;144.80;;;;;;;2.76;87.28;98980.30;106276;1323;22500;-66
2021/12/15 02:04:49;;;;;;;259.50;144.40;;;;;;;2.77;87.57;98977.95;106279;1323;22492;-66
2021/12/15 02:07:18;;;;;;;289.00;142.40;;;;;;;2.79;87.04;98973.13;106285;1323;23221;-66
2021/12/15 02:12:25;;;;;;;326.60;155.70;;;;;;;2.83;87.24;98974.60;106284;1323;23239;-66
2021/12/15 02:14:54;;;;;;;373.20;149.80;;;;;;;2.81;87.33;98976.67;106284;1323;22594;-65
2021/12/15 02:17:22;;;;;;;276.90;137.00;;;;;;;2.75;87.22;98979.48;106227;1323;22499;-66
2021/12/15 02:19:50;;;;;;;283.50;131.30;;;;;;;2.69;87.13;98976.42;106269;1323;23274;-67
2021/12/15 02:22:18;;;;;;;246.30;133.70;;;;;;;2.63;86.84;98975.34;106182;1324;23018;-65
2021/12/15 02:24:50;;;;;;;283.80;141.70;;;;;;;2.58;87.16;98977.11;106222;1323;22484;-65
2021/12/15 02:27:20;;;;;;;314.10;144.30;;;;;;;2.56;87.27;98978.81;106284;1323;22537;-65
2021/12/15 02:29:52;;;;;;;288.00;145.70;;;;;;;2.57;87.52;98977.50;106255;1323;22537;-65
2021/12/15 02:32:35;;;;;;;247.30;133.00;;;;;;;2.55;87.32;98980.31;106279;1323;22577;-64
2021/12/15 02:37:50;;;;;;;261.10;130.80;;;;;;;2.42;86.74;99005.55;106209;1323;22497;-65
2021/12/15 02:40:19;;;;;;;232.20;121.60;;;;;;;2.33;87.12;99009.48;106292;1323;22724;-66
2021/12/15 02:42:49;;;;;;;299.10;132.10;;;;;;;2.26;87.06;99012.77;106233;1323;22487;-65
2021/12/15 02:45:23;;;;;;;331.30;137.00;;;;;;;2.19;87.44;99006.31;106290;1323;22473;-64
2021/12/15 02:47:53;;;;;;;257.00;129.50;;;;;;;2.16;87.50;99008.39;106215;1323;22506;-65
2021/12/15 02:50:25;;;;;;;240.10;122.00;;;;;;;2.16;87.71;99016.77;106290;1323;22549;-65
2021/12/15 02:52:54;;;;;;;216.80;124.30;;;;;;;2.14;87.37;99012.81;106300;1323;22611;-64
2021/12/15 02:55:23;;;;;;;224.50;123.70;;;;;;;2.17;87.59;99005.27;106255;1323;22468;-65
2021/12/15 02:57:51;;;;;;;264.60;128.60;;;;;;;2.21;87.58;99001.84;106268;1323;23131;-65
2021/12/15 03:00:23;;;;;;;289.60;131.30;;;;;;;2.23;87.80;98995.88;106261;1323;23073;-66
2021/12/15 03:05:38;;;;;;;257.00;124.10;;;;;;;2.25;87.78;98996.41;106299;1323;22466;-65
2021/12/15 03:16:14;;;;;;;274.00;132.30;;;;;;;2.31;87.87;99008.64;106267;1323;22478;-65
2021/12/15 03:18:43;;;;;;;317.50;132.70;;;;;;;2.31;87.84;99004.79;106293;1323;23732;-65
2021/12/15 03:21:16;;;;;;;247.40;124.80;;;;;;;2.30;87.86;99013.39;106286;1323;22515;-66
2021/12/15 03:23:54;;;;;;;255.40;122.60;;;;;;;2.27;87.63;99019.40;106274;1323;22482;-66
2021/12/15 03:26:30;;;;;;;230.00;121.70;;;;;;;2.28;87.79;99022.48;106250;1320;22399;-64
2021/12/15 03:35:21;;;;;;;335.80;132.20;;;;;;;2.34;87.64;99028.02;106259;1323;22308;-64
2021/12/15 03:37:26;;;;;;;252.50;122.30;;;;;;;2.29;87.75;99031.32;106115;1323;23435;-65
2021/12/15 03:40:23;;;;;;;223.30;118.90;;;;;;;2.32;88.06;99035.91;106304;1322;22629;-64
2021/12/15 03:42:59;;;;;;;217.30;115.60;;;;;;;2.34;87.81;99031.33;106252;1323;22578;-66
2021/12/15 03:45:31;;;;;;;227.10;126.50;;;;;;;2.39;88.04;99032.23;106258;1323;22391;-66
2021/12/15 03:48:05;;;;;;;270.20;123.20;;;;;;;2.42;87.89;99026.75;106276;1323;22233;-65
2021/12/15 03:50:33;;;;;;;269.70;130.90;;;;;;;2.45;88.03;99024.39;106255;1323;22513;-65
2021/12/15 03:53:02;;;;;;;234.70;120.20;;;;;;;2.48;88.15;99027.55;106277;1323;22454;-65
2021/12/15 03:55:33;;;;;;;203.80;117.60;;;;;;;2.51;88.15;99029.91;106206;1323;22301;-65
2021/12/15 03:58:08;;;;;;;211.90;111.90;;;;;;;2.54;87.96;99025.41;106290;1323;22993;-65
2021/12/15 04:00:42;;;;;;;213.90;114.90;;;;;;;2.53;87.48;99034.39;106250;1323;22518;-65
2021/12/15 04:03:25;;;;;;;277.10;121.50;;;;;;;2.43;87.64;99039.39;106223;1323;23200;-65
2021/12/15 04:05:55;;;;;;;268.70;119.80;;;;;;;2.32;87.87;99042.46;106277;1323;22988;-65
2021/12/15 04:08:25;;;;;;;238.60;126.70;;;;;;;2.21;88.03;99042.67;106272;1323;22521;-63
2021/12/15 04:10:53;;;;;;;213.70;114.00;;;;;;;2.17;87.96;99044.27;106260;1323;22467;-64
2021/12/15 04:13:22;;;;;;;211.40;113.30;;;;;;;2.17;87.99;99044.25;106288;1323;22573;-64
2021/12/15 04:15:57;;;;;;;248.00;120.40;;;;;;;2.18;88.18;99047.48;106266;1324;22464;-64
2021/12/15 04:18:25;;;;;;;216.20;122.60;;;;;;;2.22;88.50;99045.89;106270;1323;22617;-64
2021/12/15 04:20:54;;;;;;;287.90;129.60;;;;;;;2.31;88.84;99050.11;106267;1323;23119;-64
2021/12/15 04:23:22;;;;;;;214.30;120.70;;;;;;;2.35;88.71;99047.35;106244;1323;22473;-65
2021/12/15 04:25:54;;;;;;;212.90;116.00;;;;;;;2.36;88.58;99047.83;106300;1323;22927;-65
2021/12/15 04:28:26;;;;;;;197.90;113.10;;;;;;;2.38;88.51;99046.88;106244;1323;23245;-64
2021/12/15 04:30:58;;;;;;;247.10;129.90;;;;;;;2.42;88.26;99044.64;106259;1323;22936;-65
2021/12/15 04:33:38;;;;;;;254.60;130.20;;;;;;;2.46;88.54;99039.94;106250;1323;22478;-65
2021/12/15 04:36:09;;;;;;;236.30;136.40;;;;;;;2.50;88.91;99043.59;106286;1322;22680;-65
2021/12/15 04:38:39;;;;;;;221.90;121.30;;;;;;;2.56;88.75;99048.45;106265;1323;22514;-66
2021/12/15 04:41:11;;;;;;;203.40;117.90;;;;;;;2.58;88.64;99049.28;106244;1323;22437;-65
2021/12/15 04:44:01;;;;;;;204.30;118.50;;;;;;;2.63;88.38;99051.16;106290;1323;22283;-65
2021/12/15 04:46:36;;;;;;;234.10;122.10;;;;;;;2.68;88.60;99050.13;106274;1323;23188;-65
2021/12/15 04:49:08;;;;;;;275.00;121.90;;;;;;;2.72;88.30;99049.44;106194;1323;22384;-64
2021/12/15 04:51:37;;;;;;;221.40;117.00;;;;;;;2.72;88.48;99055.38;106253;1323;22417;-65
2021/12/15 04:54:06;;;;;;;211.30;112.90;;;;;;;2.66;88.19;99057.61;106228;1324;23449;-66
2021/12/15 04:56:35;;;;;;;217.60;114.20;;;;;;;2.62;87.98;99060.88;106291;1323;23243;-63
2021/12/15 04:59:03;;;;;;;246.80;116.10;;;;;;;2.61;88.18;99068.41;106263;1323;22508;-65
2021/12/15 05:01:31;;;;;;;255.00;116.20;;;;;;;2.55;88.07;99072.69;106295;1323;23138;-65
2021/12/15 05:04:00;;;;;;;280.00;115.80;;;;;;;2.48;87.90;99073.16;106245;1322;23362;-64
2021/12/15 05:06:28;;;;;;;245.40;110.20;;;;;;;2.40;88.28;99079.88;106264;1323;22555;-64
2021/12/15 05:08:56;;;;;;;207.80;108.80;;;;;;;2.34;88.14;99081.29;106244;1323;22346;-65
2021/12/15 05:11:25;;;;;;;217.90;114.40;;;;;;;2.30;87.84;99086.84;106185;1323;22521;-64
2021/12/15 05:13:53;;;;;;;223.70;115.90;;;;;;;2.26;88.21;99082.45;106227;1323;23253;-65
2021/12/15 05:16:21;;;;;;;254.20;123.20;;;;;;;2.27;88.51;99076.96;106264;1323;22572;-65
2021/12/15 05:18:49;;;;;;;245.70;127.20;;;;;;;2.30;88.66;99077.06;106192;1323;22507;-64
2021/12/15 05:21:18;;;;;;;225.10;118.80;;;;;;;2.35;88.87;99079.92;106275;1323;22565;-64
2021/12/15 05:23:53;;;;;;;192.50;112.10;;;;;;;2.40;88.84;99077.10;106263;1323;22500;-64
2021/12/15 05:26:22;;;;;;;209.90;115.70;;;;;;;2.46;88.62;99074.77;106255;1324;23210;-65
2021/12/15 05:28:51;;;;;;;241.90;116.40;;;;;;;2.49;88.47;99079.52;106275;1323;22499;-64
2021/12/15 05:31:20;;;;;;;260.20;116.30;;;;;;;2.48;88.60;99077.95;106272;1323;22474;-64
2021/12/15 05:33:48;;;;;;;285.60;127.40;;;;;;;2.44;88.49;99078.05;106020;1324;22314;-63
2021/12/15 05:36:17;;;;;;;218.20;109.50;;;;;;;2.40;88.50;99083.48;106235;1323;22617;-64
2021/12/15 05:38:45;;;;;;;206.30;106.90;;;;;;;2.35;88.35;99092.20;106242;1324;22511;-64
2021/12/15 05:41:15;;;;;;;202.40;111.50;;;;;;;2.26;88.15;99089.68;106263;1323;22421;-64
2021/12/15 05:43:43;;;;;;;253.30;121.60;;;;;;;2.25;88.45;99088.80;106294;1323;23360;-64
2021/12/15 05:46:11;;;;;;;282.60;125.10;;;;;;;2.27;88.68;99087.92;106239;1323;22476;-64
2021/12/15 05:48:39;;;;;;;274.90;125.30;;;;;;;2.28;88.71;99095.23;106276;1323;22491;-65
2021/12/15 05:51:08;;;;;;;219.10;120.10;;;;;;;2.29;88.94;99091.75;106286;1323;22271;-64
2021/12/15 05:53:36;;;;;;;221.60;118.90;;;;;;;2.32;88.81;99093.70;106263;1324;23128;-64
2021/12/15 05:56:06;;;;;;;245.00;114.80;;;;;;;2.34;88.74;99098.67;106274;1323;22575;-61
2021/12/15 05:58:34;;;;;;;255.50;122.20;;;;;;;2.39;88.81;99101.23;106287;1323;22621;-64
2021/12/15 06:01:04;;;;;;;293.10;126.20;;;;;;;2.40;88.52;99102.59;106276;1323;22258;-65
2021/12/15 06:03:33;;;;;;;242.30;121.60;;;;;;;2.37;88.44;99102.66;106263;1323;23114;-64
2021/12/15 06:06:01;;;;;;;220.10;115.30;;;;;;;2.36;88.66;99106.27;106256;1323;22392;-64
2021/12/15 06:08:29;;;;;;;188.80;110.90;;;;;;;2.35;88.43;99111.35;106275;1323;22514;-62
2021/12/15 06:10:58;;;;;;;198.60;107.80;;;;;;;2.32;88.28;99112.65;106244;1321;22505;-63
2021/12/15 06:13:27;;;;;;;237.30;112.30;;;;;;;2.29;88.31;99117.66;106284;1323;23242;-63
2021/12/15 06:15:57;;;;;;;313.50;127.70;;;;;;;2.23;88.57;99124.11;106261;1324;22470;-62
2021/12/15 06:18:26;;;;;;;258.40;131.50;;;;;;;2.20;88.64;99122.57;106292;1323;22508;-63
2021/12/15 06:20:55;;;;;;;233.30;126.50;;;;;;;2.20;89.08;99121.40;106181;1323;22492;-63
2021/12/15 06:23:24;;;;;;;228.40;126.80;;;;;;;2.19;88.70;99122.30;106265;1323;22479;-63
2021/12/15 06:25:57;;;;;;;229.20;126.20;;;;;;;2.21;88.87;99121.34;106189;1323;138740;-63
2021/12/15 06:28:27;;;;;;;237.80;131.70;;;;;;;2.26;88.89;99119.43;106254;1323;22484;-63
2021/12/15 06:30:57;;;;;;;269.90;131.00;;;;;;;2.31;88.81;99120.64;106297;1323;22575;-64
2021/12/15 06:33:28;;;;;;;344.40;133.60;;;;;;;2.29;88.73;99116.95;106262;1323;22474;-63
2021/12/15 06:35:58;;;;;;;225.80;121.60;;;;;;;2.27;88.55;99121.44;106256;1323;23127;-63
2021/12/15 06:38:34;;;;;;;210.90;111.70;;;;;;;2.27;88.67;99128.39;106294;1323;22643;-63
2021/12/15 06:41:05;;;;;;;223.90;119.20;;;;;;;2.25;88.43;99125.78;106288;1323;22269;-64
2021/12/15 06:43:34;;;;;;;232.50;121.30;;;;;;;2.27;88.93;99123.55;106279;1323;22303;-64
2021/12/15 06:59:59;;;;;;;245.70;131.50;;;;;;;2.33;88.90;99140.17;106265;1314;22513;-62
2021/12/15 07:02:27;;;;;;;280.20;139.70;;;;;;;2.37;89.24;99140.15;106284;1323;22393;-62
2021/12/15 07:04:56;;;;;;;308.20;148.50;;;;;;;2.39;89.17;99140.13;106302;1323;22463;-62
2021/12/15 07:07:24;;;;;;;264.40;135.80;;;;;;;2.39;89.13;99141.73;106183;1323;23338;-62
2021/12/15 07:09:52;;;;;;;233.90;122.30;;;;;;;2.40;89.04;99142.70;106249;1323;23454;-62
2021/12/15 07:12:20;;;;;;;224.60;125.50;;;;;;;2.43;89.19;99145.66;106266;1323;22553;-63
2021/12/15 07:14:48;;;;;;;240.80;117.80;;;;;;;2.46;88.97;99149.98;106266;1320;22505;-62
2021/12/15 07:17:21;;;;;;;238.40;121.30;;;;;;;2.46;88.97;99153.70;106264;1323;22311;-63
2021/12/15 07:22:36;;;;;;;256.60;119.10;;;;;;;2.44;89.21;99160.04;106272;1323;22385;-63
2021/12/15 07:25:06;;;;;;;211.20;116.70;;;;;;;2.44;89.22;99156.99;106280;1321;22412;-63
2021/12/15 07:27:34;;;;;;;201.20;120.70;;;;;;;2.48;88.97;99160.59;106244;1323;22298;-62
2021/12/15 07:30:04;;;;;;;286.70;126.80;;;;;;;2.51;89.18;99161.79;106257;1323;22503;-63
2021/12/15 07:32:33;;;;;;;279.50;135.50;;;;;;;2.52;88.93;99166.77;106281;1323;23113;-63
2021/12/15 07:35:01;;;;;;;300.50;134.80;;;;;;;2.51;89.19;99170.59;106281;1323;22421;-62
2021/12/15 07:37:29;;;;;;;201.40;110.70;;;;;;;2.51;89.16;99174.84;106253;1323;22272;-61
2021/12/15 07:39:59;;;;;;;200.60;111.10;;;;;;;2.50;89.31;99179.08;106268;1323;22523;-63
2021/12/15 07:42:34;;;;;;;195.70;107.90;;;;;;;2.52;89.25;99177.38;106240;1323;22459;-62
2021/12/15 07:45:04;;;;;;;227.10;115.50;;;;;;;2.56;89.10;99190.86;106260;1322;22410;-64
2021/12/15 07:47:34;;;;;;;266.30;118.30;;;;;;;2.57;89.20;99197.49;106261;1323;23062;-63
2021/12/15 07:50:04;;;;;;;219.50;115.40;;;;;;;2.52;89.27;99199.19;106252;1323;22641;-64
2021/12/15 07:52:33;;;;;;;185.00;102.80;;;;;;;2.47;89.23;99206.42;106276;1323;22411;-63
2021/12/15 07:55:01;;;;;;;182.60;100.50;;;;;;;2.39;89.37;99214.61;106270;1323;22580;-64
2021/12/15 07:57:29;;;;;;;172.70;101.00;;;;;;;2.33;89.48;99211.47;106184;1323;22986;-64
2021/12/15 07:59:57;;;;;;;231.80;112.70;;;;;;;2.33;89.41;99213.95;106265;1323;22426;-63
2021/12/15 08:02:26;;;;;;;244.30;114.80;;;;;;;2.30;89.35;99212.90;106273;1323;22458;-63
2021/12/15 08:04:55;;;;;;;198.50;106.60;;;;;;;2.30;89.70;99220.95;106287;1322;22511;-63
2021/12/15 08:07:23;;;;;;;202.80;111.00;;;;;;;2.33;89.59;99224.11;106295;1323;22479;-63
2021/12/15 08:09:51;;;;;;;187.40;111.20;;;;;;;2.35;89.52;99226.10;106259;1323;22502;-64
2021/12/15 08:12:19;;;;;;;210.80;114.50;;;;;;;2.42;89.66;99229.34;106270;1323;22490;-63
2021/12/15 08:14:47;;;;;;;233.90;118.70;;;;;;;2.46;89.64;99233.85;106232;1323;22516;-63
2021/12/15 08:17:15;;;;;;;291.30;118.00;;;;;;;2.48;89.73;99233.84;106190;1323;22546;-63
2021/12/15 08:19:44;;;;;;;245.80;114.70;;;;;;;2.45;89.75;99230.30;106288;1323;23396;-66
2021/12/15 08:22:12;;;;;;;193.50;112.40;;;;;;;2.46;89.72;99231.60;106249;1323;22633;-63
2021/12/15 08:24:40;;;;;;;194.80;106.50;;;;;;;2.51;89.62;99236.40;106279;1321;22513;-63
2021/12/15 08:27:09;;;;;;;210.90;113.30;;;;;;;2.58;89.69;99237.18;106243;1323;23148;-63
2021/12/15 08:29:37;;;;;;;233.20;119.10;;;;;;;2.65;89.75;99240.33;106250;1324;22482;-63
2021/12/15 08:32:06;;;;;;;224.00;129.10;;;;;;;2.72;90.28;99237.92;106266;1322;22285;-66
2021/12/15 08:34:34;;;;;;;204.40;113.70;;;;;;;2.81;90.11;99238.39;106253;1322;22235;-63
2021/12/15 08:37:03;;;;;;;206.10;107.50;;;;;;;2.91;90.22;99236.80;106246;1323;22416;-63
2021/12/15 08:39:32;;;;;;;197.10;110.90;;;;;;;3.01;89.97;99239.92;106240;1323;22379;-63
2021/12/15 08:42:00;;;;;;;212.80;121.10;;;;;;;3.10;89.92;99243.41;106312;1323;22506;-63
2021/12/15 08:44:28;;;;;;;276.90;115.10;;;;;;;3.15;89.98;99245.02;106290;1323;22625;-63
2021/12/15 08:46:56;;;;;;;283.70;116.90;;;;;;;3.13;89.67;99248.52;106241;1323;22467;-62
2021/12/15 08:49:25;;;;;;;246.80;108.70;;;;;;;3.09;89.79;99248.95;106287;1323;22493;-62
2021/12/15 08:51:53;;;;;;;194.30;110.50;;;;;;;3.08;89.45;99247.24;106280;1323;22491;-62
2021/12/15 08:54:23;;;;;;;203.70;112.80;;;;;;;3.09;89.58;99243.71;106246;1323;22481;-62
2021/12/15 08:56:52;;;;;;;250.00;123.70;;;;;;;3.11;89.57;99242.34;106256;1323;23221;-63
2021/12/15 08:59:21;;;;;;;240.70;119.80;;;;;;;3.12;89.69;99241.33;106283;1323;22540;-63
2021/12/15 09:01:50;;;;;;;257.20;119.60;;;;;;;3.13;89.74;99241.61;106292;1322;22399;-62
2021/12/15 09:04:19;;;;;;;236.30;120.90;;;;;;;3.11;89.66;99236.45;106302;1323;22566;-63
2021/12/15 09:06:48;;;;;;;234.80;118.10;;;;;;;3.09;89.66;99238.69;106284;1323;22441;-63
2021/12/15 09:09:20;;;;;;;223.40;119.00;;;;;;;3.09;89.47;99240.73;106275;1323;22480;-63
2021/12/15 09:11:52;;;;;;;235.60;122.90;;;;;;;3.09;89.47;99241.70;106271;1323;22457;-63
2021/12/15 09:14:20;;;;;;;286.90;134.40;;;;;;;3.10;89.79;99237.20;106263;1324;23129;-63
2021/12/15 09:16:52;;;;;;;328.40;123.30;;;;;;;3.12;89.94;99235.66;106268;1323;23230;-63
2021/12/15 09:19:21;;;;;;;211.30;115.30;;;;;;;3.10;89.62;99232.52;106311;1317;22482;-63
2021/12/15 09:21:51;;;;;;;202.00;103.50;;;;;;;3.10;89.79;99231.70;106256;1323;22725;-64
2021/12/15 09:24:20;;;;;;;185.40;106.30;;;;;;;3.09;89.46;99233.96;106167;1323;23292;-63
2021/12/15 09:26:49;;;;;;;213.60;110.00;;;;;;;3.05;89.27;99232.84;106305;1323;22501;-63
2021/12/15 09:29:17;;;;;;;255.60;109.30;;;;;;;3.05;89.56;99234.00;106266;1323;22491;-63
2021/12/15 09:31:46;;;;;;;224.80;114.00;;;;;;;3.04;89.74;99234.09;106251;1323;22481;-64
2021/12/15 09:34:18;;;;;;;183.80;99.60;;;;;;;3.03;89.81;99228.08;106289;1323;23114;-63
2021/12/15 09:36:52;;;;;;;153.80;91.70;;;;;;;3.01;89.73;99227.48;106256;1323;22577;-63
2021/12/15 09:39:22;;;;;;;154.80;91.90;;;;;;;2.98;89.53;99224.66;106277;1323;22470;-64
2021/12/15 09:41:56;;;;;;;172.50;100.80;;;;;;;2.97;89.54;99218.62;106278;1323;22445;-64
2021/12/15 09:44:26;;;;;;;249.40;135.60;;;;;;;2.98;89.81;99220.61;106257;1323;22475;-63
2021/12/15 10:06:07;;;;;;;206.80;121.70;;;;;;;3.41;90.19;99224.80;106277;1323;22288;-63
2021/12/15 10:20:03;;;;;;;215.40;112.40;;;;;;;3.34;89.68;99216.55;106269;1322;23016;-63
2021/12/15 10:22:42;;;;;;;196.00;103.10;;;;;;;3.31;89.86;99216.65;106273;1323;22386;-62
2021/12/15 10:25:26;;;;;;;181.70;99.70;;;;;;;3.31;89.80;99215.16;106314;1323;22465;-63
2021/12/15 10:28:14;;;;;;;190.40;95.90;;;;;;;3.30;89.82;99216.66;106314;1320;22603;-64
2021/12/15 10:30:50;;;;;;;186.90;103.40;;;;;;;3.28;89.89;99219.21;106300;1323;23107;-64
2021/12/15 10:33:27;;;;;;;211.00;98.70;;;;;;;3.28;89.97;99219.38;106321;1322;23224;-63
2021/12/15 10:36:03;;;;;;;167.40;89.00;;;;;;;3.27;89.91;99218.81;106313;1323;22299;-64
2021/12/15 10:38:42;;;;;;;158.70;90.50;;;;;;;3.26;90.06;99217.30;106352;1323;22513;-63
2021/12/15 10:41:15;;;;;;;160.20;93.60;;;;;;;3.27;90.12;99214.84;106319;1323;22407;-64
2021/12/15 10:44:09;;;;;;;211.80;101.40;;;;;;;3.29;90.23;99208.73;106373;1323;22491;-64
2021/12/15 10:46:56;;;;;;;209.50;107.00;;;;;;;3.30;90.22;99192.44;106345;1323;22386;-64
2021/12/15 10:49:29;;;;;;;189.80;104.90;;;;;;;3.29;90.06;99180.43;106242;1323;23387;-62
2021/12/15 10:52:09;;;;;;;191.70;112.70;;;;;;;3.29;90.16;99180.11;106327;1323;22514;-64
2021/12/15 10:54:54;;;;;;;191.40;100.40;;;;;;;3.33;90.47;99184.82;106266;1323;22280;-62
2021/12/15 10:57:34;;;;;;;224.30;115.70;;;;;;;3.37;90.35;99195.20;106315;1323;22999;-63
2021/12/15 11:00:09;;;;;;;222.20;115.80;;;;;;;3.39;90.45;99198.42;106247;1323;22271;-63
2021/12/15 11:02:41;;;;;;;197.10;108.50;;;;;;;3.40;90.49;99196.73;106293;1323;22447;-63
2021/12/15 11:05:21;;;;;;;206.50;112.30;;;;;;;3.40;90.35;99194.84;106251;1323;22457;-63
2021/12/15 11:07:58;;;;;;;190.30;106.00;;;;;;;3.42;90.20;99182.52;106345;1323;22604;-63
2021/12/15 11:10:34;;;;;;;241.80;127.00;;;;;;;3.47;90.58;99177.64;106278;1323;22578;-63
2021/12/15 11:13:06;;;;;;;254.10;126.70;;;;;;;3.53;90.60;99181.79;106320;1323;22407;-63
2021/12/15 11:15:43;;;;;;;206.30;109.10;;;;;;;3.58;90.47;99187.31;106307;1323;22418;-63
2021/12/15 11:18:18;;;;;;;220.90;115.10;;;;;;;3.60;90.68;99184.66;106309;1323;22571;-63
2021/12/15 11:20:56;;;;;;;286.60;131.70;;;;;;;3.59;90.37;99180.04;106231;1323;22291;-63
2021/12/15 11:23:31;;;;;;;196.30;100.30;;;;;;;3.57;90.43;99176.20;106360;1323;22537;-63
2021/12/15 11:26:06;;;;;;;219.30;102.00;;;;;;;3.53;90.35;99173.84;106317;1323;22266;-63
2021/12/15 11:28:46;;;;;;;284.30;140.20;;;;;;;3.51;90.88;99166.00;106321;1323;23612;-63
2021/12/15 11:31:31;;;;;;;200.20;110.70;;;;;;;3.53;90.71;99156.42;106338;1323;22433;-63
2021/12/15 11:34:13;;;;;;;221.90;111.90;;;;;;;3.53;90.72;99150.55;106343;1322;22460;-65
2021/12/15 11:36:48;;;;;;;226.80;118.10;;;;;;;3.59;90.64;99158.39;106319;1323;22612;-64
2021/12/15 11:39:21;;;;;;;247.40;124.80;;;;;;;3.63;90.85;99155.58;106324;1323;22503;-64
2021/12/15 11:41:53;;;;;;;212.10;121.20;;;;;;;3.63;90.67;99150.84;106283;1323;22486;-64
2021/12/15 11:44:25;;;;;;;196.30;116.60;;;;;;;3.66;90.93;99150.64;106259;1320;22605;-64
2021/12/15 11:47:01;;;;;;;219.50;126.90;;;;;;;3.70;90.49;99151.48;106317;1323;22509;-65
2021/12/15 11:49:34;;;;;;;234.00;122.60;;;;;;;3.75;90.53;99157.19;106316;1323;22465;-64
2021/12/15 11:52:11;;;;;;;235.60;126.10;;;;;;;3.77;90.53;99164.46;106281;1323;22460;-64
2021/12/15 11:54:48;;;;;;;260.30;127.70;;;;;;;3.79;90.62;99164.36;106277;1323;22438;-65
2021/12/15 11:57:23;;;;;;;185.90;106.90;;;;;;;3.79;91.06;99162.55;106317;1323;22443;-64
2021/12/15 11:59:55;;;;;;;187.70;102.90;;;;;;;3.82;91.03;99155.02;106313;1323;23683;-64
2021/12/15 12:02:37;;;;;;;158.40;90.90;;;;;;;3.87;90.50;99159.19;106326;1320;22307;-64
2021/12/15 12:05:07;;;;;;;182.50;93.00;;;;;;;3.88;90.56;99156.91;106306;1323;23089;-64
2021/12/15 12:07:47;;;;;;;197.50;91.20;;;;;;;3.85;90.55;99152.09;106288;1323;22464;-64
2021/12/15 12:10:28;;;;;;;166.70;87.00;;;;;;;3.82;90.72;99156.24;106304;1323;22513;-63
2021/12/15 12:13:10;;;;;;;150.90;91.50;;;;;;;3.80;90.72;99158.40;106232;1316;22485;-63
2021/12/15 12:15:42;;;;;;;160.90;94.20;;;;;;;3.78;90.60;99157.82;106253;1314;23235;-64
2021/12/15 12:18:18;;;;;;;189.80;98.10;;;;;;;3.79;90.98;99161.56;106343;1322;22463;-63
2021/12/15 12:20:56;;;;;;;174.60;97.80;;;;;;;3.81;90.96;99160.40;106385;1321;22577;-63
2021/12/15 12:23:28;;;;;;;164.30;85.40;;;;;;;3.84;90.94;99163.60;106367;1322;22650;-64
2021/12/15 12:26:01;;;;;;;154.40;95.10;;;;;;;3.88;90.92;99164.83;106389;1322;22986;-64
2021/12/15 12:28:40;;;;;;;156.80;91.60;;;;;;;3.91;90.94;99157.89;106251;1322;23691;-64
2021/12/15 12:31:16;;;;;;;172.80;96.70;;;;;;;3.92;90.78;99154.48;106362;1322;22479;-64
2021/12/15 12:33:44;;;;;;;223.80;100.10;;;;;;;3.91;90.51;99153.71;106361;1322;22461;-64
2021/12/15 12:36:18;;;;;;;163.40;88.50;;;;;;;3.94;91.24;99145.80;106381;1322;22464;-64
2021/12/15 12:38:53;;;;;;;163.60;89.00;;;;;;;3.93;91.04;99136.54;106366;1321;23236;-63
2021/12/15 12:41:25;;;;;;;164.80;95.60;;;;;;;3.96;90.65;99138.64;106344;1317;22579;-63
2021/12/15 12:44:00;;;;;;;192.80;99.10;;;;;;;3.99;91.01;99139.73;106365;1322;22433;-62
2021/12/15 12:47:00;;;;;;;190.10;84.60;;;;;;;3.96;90.95;99135.55;106388;1322;22530;-63